Time;durP1;ratioP1;P1;durP2;ratioP2;P2;SDS_P1;SDS_P2;PMS_P1;PMS_P2;Temp;Humidity;BMP_temperature;BMP_pressure;BME280_temperature;BME280_humidity;BME280_pressure;Samples;Min_cycle;Max_cycle;Signal;HPM_P1;HPM_P2
2022/06/26 00:03:05;;;;;;;;;2.00;1.00;;;;;18.18;59.56;100596.16;5019998;28;46111;-92
2022/06/26 00:05:31;;;;;;;;;1.00;0.75;;;;;18.17;59.79;100599.78;5022984;28;45709;-89
2022/06/26 00:07:56;;;;;;;;;3.00;2.00;;;;;18.14;59.77;100592.13;5021988;28;45602;-90
2022/06/26 00:10:22;;;;;;;;;1.00;1.00;;;;;18.20;59.74;100603.94;5021712;28;45668;-90
2022/06/26 00:12:47;;;;;;;;;1.00;1.00;;;;;18.15;60.15;100598.28;5020604;28;45799;-90
2022/06/26 00:18:35;;;;;;;;;2.25;2.00;;;;;18.15;60.58;100599.09;5020454;28;45553;-91
2022/06/26 00:21:01;;;;;;;;;1.25;1.00;;;;;18.14;60.17;100600.09;5005618;28;45953;-89
2022/06/26 00:23:26;;;;;;;;;1.00;1.00;;;;;18.12;60.33;100595.94;5027962;28;46515;-91
2022/06/26 00:25:52;;;;;;;;;1.25;1.00;;;;;18.08;60.63;100586.66;5023596;28;45560;-89
2022/06/26 00:28:17;;;;;;;;;3.75;3.00;;;;;18.09;60.58;100596.25;5022540;28;45564;-89
2022/06/26 00:30:43;;;;;;;;;5.25;4.25;;;;;17.95;60.37;100571.16;5003760;28;45565;-82
2022/06/26 00:33:08;;;;;;;;;2.50;2.50;;;;;18.06;60.58;100588.63;5021933;28;45605;-85
2022/06/26 00:35:34;;;;;;;;;2.75;1.00;;;;;18.07;60.72;100585.81;5022665;28;45588;-85
2022/06/26 00:38:00;;;;;;;;;1.75;1.00;;;;;17.98;60.26;100576.13;5005302;28;45651;-83
2022/06/26 00:40:25;;;;;;;;;1.75;1.75;;;;;18.00;60.66;100571.53;5026665;28;45494;-81
2022/06/26 00:42:52;;;;;;;;;1.75;1.00;;;;;17.97;60.21;100574.50;5022945;28;46679;-84
2022/06/26 00:48:39;;;;;;;;;3.00;1.00;;;;;18.04;60.62;100588.75;5028859;28;45402;-83
2022/06/26 00:51:05;;;;;;;;;2.50;1.00;;;;;18.04;60.86;100584.31;5009389;28;45477;-87
2022/06/26 00:53:31;;;;;;;;;2.25;1.75;;;;;18.00;60.89;100590.06;5024147;28;46348;-88
2022/06/26 00:55:58;;;;;;;;;3.00;2.00;;;;;18.00;60.63;100605.97;5022084;28;46567;-90
2022/06/26 00:58:25;;;;;;;;;2.25;2.25;;;;;17.89;60.70;100585.88;5019958;28;45651;-87
2022/06/26 01:00:51;;;;;;;;;2.00;1.50;;;;;17.93;60.64;100597.00;5019934;28;45671;-84
2022/06/26 01:03:16;;;;;;;;;1.50;1.00;;;;;17.98;60.34;100610.59;5019148;28;46524;-86
2022/06/26 01:05:42;;;;;;;;;1.50;1.50;;;;;17.97;60.68;100601.00;5021226;28;45686;-89
2022/06/26 01:08:08;;;;;;;;;2.75;2.00;;;;;17.86;60.80;100580.91;5021622;28;45648;-85
2022/06/26 01:10:33;;;;;;;;;2.00;1.00;;;;;17.93;60.24;100591.69;5025904;28;45617;-83
2022/06/26 01:13:00;;;;;;;;;2.00;2.00;;;;;17.88;60.31;100592.16;5027484;28;46597;-86
2022/06/26 01:18:50;;;;;;;;;2.00;2.00;;;;;17.88;60.44;100613.38;5026783;28;45604;-79
2022/06/26 01:21:17;;;;;;;;;3.50;2.00;;;;;17.91;60.49;100615.72;5027366;28;45271;-81
2022/06/26 01:23:42;;;;;;;;;1.00;1.00;;;;;17.88;60.43;100615.19;5028654;28;45642;-81
2022/06/26 01:26:08;;;;;;;;;4.00;2.00;;;;;17.88;61.02;100617.81;5031392;28;46156;-85
2022/06/26 01:28:33;;;;;;;;;3.00;2.75;;;;;17.79;60.65;100606.34;5029479;28;45504;-83
2022/06/26 01:30:59;;;;;;;;;2.50;2.00;;;;;17.80;60.18;100602.72;5030442;28;45623;-82
2022/06/26 01:33:24;;;;;;;;;1.50;1.00;;;;;17.85;60.29;100615.50;5025962;28;45765;-81
2022/06/26 01:35:50;;;;;;;;;2.00;2.00;;;;;17.76;60.55;100608.50;5024536;28;45672;-81
2022/06/26 01:38:20;;;;;;;;;2.00;2.00;;;;;17.85;60.94;100623.47;5022795;28;45500;-81
2022/06/26 01:40:46;;;;;;;;;2.00;2.00;;;;;17.73;60.38;100619.38;5022160;28;45614;-85
2022/06/26 01:43:17;;;;;;;;;2.50;2.25;;;;;17.75;60.79;100628.88;5024346;28;45571;-82
2022/06/26 01:49:05;;;;;;;;;2.25;2.25;;;;;17.69;61.03;100637.44;5023760;28;45591;-87
2022/06/26 01:51:30;;;;;;;;;1.25;1.25;;;;;17.61;61.09;100643.47;5024534;28;45841;-84
2022/06/26 01:53:56;;;;;;;;;2.75;2.00;;;;;17.61;60.81;100640.00;5024002;28;46074;-87
2022/06/26 01:56:21;;;;;;;;;2.00;2.00;;;;;17.57;61.39;100626.19;5023291;28;45573;-84
2022/06/26 01:58:47;;;;;;;;;3.00;2.75;;;;;17.57;61.05;100631.50;5023707;28;45580;-85
2022/06/26 02:01:12;;;;;;;;;2.00;2.00;;;;;17.47;61.17;100621.97;5025124;28;45549;-85
2022/06/26 02:03:38;;;;;;;;;3.00;2.00;;;;;17.40;61.07;100612.97;5029920;28;46584;-89
2022/06/26 02:06:03;;;;;;;;;2.00;2.00;;;;;17.39;61.23;100635.13;5027747;28;45701;-90
2022/06/26 02:08:29;;;;;;;;;3.75;1.25;;;;;17.41;61.76;100627.88;5023939;28;45511;-90
2022/06/26 02:13:42;;;;;;;;;4.00;3.00;;;;;17.29;61.84;100631.75;5023582;28;45668;-90
2022/06/26 02:19:29;;;;;;;;;2.00;2.00;;;;;17.21;61.38;100624.56;5024293;28;45619;-85
2022/06/26 02:21:54;;;;;;;;;3.00;3.00;;;;;17.15;62.06;100633.09;5025236;28;45665;-87
2022/06/26 02:24:20;;;;;;;;;3.50;2.00;;;;;17.18;61.93;100646.88;5024367;28;46842;-88
2022/06/26 02:26:45;;;;;;;;;3.00;2.00;;;;;17.06;62.38;100632.19;5024481;28;45631;-86
2022/06/26 02:29:10;;;;;;;;;3.00;3.00;;;;;17.08;62.47;100645.28;5025230;28;45491;-88
2022/06/26 02:31:36;;;;;;;;;1.75;1.75;;;;;17.02;62.73;100643.22;5024716;28;45627;-86
2022/06/26 02:34:01;;;;;;;;;3.00;3.00;;;;;16.94;62.65;100624.63;5020043;28;45750;-86
2022/06/26 02:36:27;;;;;;;;;3.00;3.00;;;;;16.90;62.69;100621.41;5018274;28;45564;-84
2022/06/26 02:38:52;;;;;;;;;2.00;2.00;;;;;16.92;62.45;100626.56;5021532;28;45872;-80
2022/06/26 02:41:17;;;;;;;;;2.75;2.50;;;;;16.84;62.91;100618.56;5020516;28;45511;-83
2022/06/26 02:43:43;;;;;;;;;3.00;2.00;;;;;16.86;63.01;100627.16;5018854;28;47263;-85
2022/06/26 02:49:31;;;;;;;;;2.00;2.00;;;;;16.83;63.16;100633.59;5021848;28;45576;-84
2022/06/26 02:51:56;;;;;;;;;2.00;2.00;;;;;16.78;63.24;100631.41;5023457;28;45647;-83
2022/06/26 02:54:22;;;;;;;;;2.00;2.00;;;;;16.73;63.51;100633.63;5019041;28;46563;-79
2022/06/26 02:56:47;;;;;;;;;3.50;3.00;;;;;16.68;63.53;100630.59;5003584;28;46594;-80
2022/06/26 02:59:13;;;;;;;;;2.75;2.75;;;;;16.66;63.21;100640.53;5026533;28;45479;-88
2022/06/26 03:01:38;;;;;;;;;3.25;1.50;;;;;16.57;63.40;100620.19;5026759;28;45716;-82
2022/06/26 03:04:04;;;;;;;;;3.25;2.00;;;;;16.66;63.29;100639.69;5025473;28;46264;-85
2022/06/26 03:06:30;;;;;;;;;3.75;3.00;;;;;16.66;63.36;100644.97;5024932;28;45883;-83
2022/06/26 03:08:56;;;;;;;;;2.00;2.00;;;;;16.54;63.70;100625.78;5023792;28;45557;-85
2022/06/26 03:11:21;;;;;;;;;3.75;2.00;;;;;16.57;63.89;100646.63;5024501;28;45555;-90
2022/06/26 03:13:47;;;;;;;;;4.00;3.00;;;;;16.54;63.73;100649.59;5025514;28;46621;-87
2022/06/26 03:19:34;;;;;;;;;4.25;3.00;;;;;16.49;64.00;100643.06;5024077;28;45771;-89
2022/06/26 03:22:00;;;;;;;;;3.50;3.00;;;;;16.52;63.81;100645.44;5024376;28;45606;-90
2022/06/26 03:24:25;;;;;;;;;3.00;2.00;;;;;16.47;63.99;100651.13;5028958;28;47525;-87
2022/06/26 03:26:51;;;;;;;;;3.00;3.00;;;;;16.42;64.28;100647.28;5035995;28;45639;-84
2022/06/26 03:35:23;;;;;;;;;1.75;1.00;;;;;16.24;64.37;100649.84;5035661;28;45402;-91
2022/06/26 03:37:48;;;;;;;;;4.25;2.25;;;;;16.20;64.64;100654.59;5029637;28;45638;-90
2022/06/26 03:40:14;;;;;;;;;2.75;2.75;;;;;16.21;64.72;100658.06;5029725;28;45550;-91
2022/06/26 03:42:40;;;;;;;;;4.25;3.00;;;;;16.21;64.73;100656.25;5026971;28;45663;-88
2022/06/26 03:45:07;;;;;;;;;3.50;3.00;;;;;16.10;64.55;100637.91;5029092;28;46575;-87
2022/06/26 03:47:33;;;;;;;;;2.00;2.00;;;;;16.17;64.78;100657.53;5034909;28;45913;-87
2022/06/26 03:49:59;;;;;;;;;2.25;2.25;;;;;16.08;64.74;100639.91;5027505;28;45639;-86
2022/06/26 03:52:24;;;;;;;;;2.00;1.75;;;;;16.20;64.87;100653.75;5026167;28;45485;-87
2022/06/26 03:54:50;;;;;;;;;3.50;3.00;;;;;16.24;64.84;100657.78;5025244;28;46757;-90
2022/06/26 03:57:16;;;;;;;;;4.00;3.00;;;;;16.27;64.55;100660.13;5025648;28;46043;-88
2022/06/26 03:59:41;;;;;;;;;3.50;3.00;;;;;16.18;64.44;100653.91;5026649;28;45589;-90
2022/06/26 04:02:07;;;;;;;;;3.50;3.00;;;;;16.27;64.30;100660.13;5024427;28;45627;-88
2022/06/26 04:04:32;;;;;;;;;3.00;3.00;;;;;16.34;64.13;100672.66;5026115;28;45807;-89
2022/06/26 04:06:57;;;;;;;;;3.00;3.00;;;;;16.37;64.22;100674.16;5024238;28;46046;-83
2022/06/26 04:09:24;;;;;;;;;3.25;3.00;;;;;16.38;64.04;100674.00;5025050;28;45627;-85
2022/06/26 04:11:50;;;;;;;;;4.00;3.00;;;;;16.47;64.10;100682.88;5023817;28;45520;-89
2022/06/26 04:14:15;;;;;;;;;3.00;2.00;;;;;16.46;63.63;100685.69;5028520;28;45571;-87
2022/06/26 04:20:03;;;;;;;;;2.25;1.00;;;;;16.47;63.46;100704.03;5026551;28;45465;-86
2022/06/26 04:22:28;;;;;;;;;3.00;2.75;;;;;16.46;63.02;100699.75;5029560;28;45662;-84
2022/06/26 04:24:54;;;;;;;;;2.50;0.50;;;;;16.42;63.30;100692.22;5030406;28;47349;-89
2022/06/26 04:27:19;;;;;;;;;3.00;2.00;;;;;16.47;63.36;100703.19;5030600;28;45275;-84
2022/06/26 04:29:45;;;;;;;;;6.00;2.00;;;;;16.36;63.29;100691.81;5026917;28;45621;-89
2022/06/26 04:32:10;;;;;;;;;2.25;1.50;;;;;16.43;62.86;100696.53;5023108;28;45715;-91
2022/06/26 04:34:35;;;;;;;;;2.00;1.75;;;;;16.51;63.09;100710.72;5024163;28;45741;-90
2022/06/26 04:37:01;;;;;;;;;2.75;2.00;;;;;16.60;62.91;100714.34;5022945;28;47073;-87
2022/06/26 04:39:26;;;;;;;;;2.00;2.00;;;;;16.55;62.44;100698.03;5023540;28;45693;-86
2022/06/26 04:41:51;;;;;;;;;2.00;2.00;;;;;16.62;62.26;100710.59;5022973;28;45688;-87
2022/06/26 04:44:18;;;;;;;;;3.50;2.75;;;;;16.64;62.22;100700.66;5022944;28;45973;-89
2022/06/26 04:50:07;;;;;;;;;4.00;2.50;;;;;16.65;62.26;100712.94;5022185;28;45807;-83
2022/06/26 04:52:32;;;;;;;;;2.00;2.00;;;;;16.59;61.96;100715.31;5021967;28;45662;-88
2022/06/26 04:54:58;;;;;;;;;1.50;1.50;;;;;16.67;61.93;100720.72;5021692;28;45528;-85
2022/06/26 04:57:25;;;;;;;;;4.75;3.75;;;;;16.73;61.87;100730.72;5021918;28;45592;-83
2022/06/26 04:59:51;;;;;;;;;2.75;2.50;;;;;16.74;61.96;100733.22;5020308;28;45798;-87
2022/06/26 05:05:38;;;;;;;;;2.00;2.00;;;;;16.73;61.50;100718.31;5020092;28;45716;-87
2022/06/26 05:08:03;;;;;;;;;4.00;4.00;;;;;16.68;61.44;100715.25;5017328;28;46477;-88
2022/06/26 05:10:29;;;;;;;;;2.75;2.00;;;;;16.67;61.44;100710.97;5021427;28;45761;-92
2022/06/26 05:12:54;;;;;;;;;3.75;2.00;;;;;16.79;61.23;100725.66;5020261;28;45645;-88
2022/06/26 05:15:20;;;;;;;;;3.00;2.00;;;;;16.85;61.38;100740.13;5015769;28;47277;-89
2022/06/26 05:17:45;;;;;;;;;1.50;1.25;;;;;16.82;61.24;100731.66;5017958;28;45535;-90
2022/06/26 05:20:11;;;;;;;;;3.00;3.00;;;;;16.83;61.28;100728.03;5021402;28;45469;-90
2022/06/26 05:22:36;;;;;;;;;2.75;2.00;;;;;16.84;60.83;100733.19;5022334;28;45489;-88
2022/06/26 05:25:02;;;;;;;;;2.75;2.50;;;;;16.84;60.81;100735.84;5021881;28;45615;-85
2022/06/26 05:27:27;;;;;;;;;2.25;2.00;;;;;16.89;60.57;100725.66;5023376;28;46177;-84
2022/06/26 05:29:53;;;;;;;;;2.75;2.00;;;;;16.89;60.46;100736.22;5023014;28;45406;-86
2022/06/26 05:35:40;;;;;;;;;1.50;1.50;;;;;16.84;60.32;100725.25;5024280;28;45423;-88
2022/06/26 05:38:05;;;;;;;;;1.00;1.00;;;;;16.86;60.09;100740.97;5019747;28;45543;-88
2022/06/26 05:40:31;;;;;;;;;2.00;1.00;;;;;16.95;60.40;100750.69;5018610;28;45490;-90
2022/06/26 05:42:58;;;;;;;;;1.50;1.50;;;;;16.94;59.77;100747.22;5016853;28;45532;-90
2022/06/26 05:45:23;;;;;;;;;3.75;1.00;;;;;16.98;59.67;100748.56;5016663;28;45657;-88
2022/06/26 05:47:49;;;;;;;;;3.00;2.50;;;;;16.95;59.74;100756.78;5016837;28;45580;-92
2022/06/26 05:50:15;;;;;;;;;3.00;2.75;;;;;17.00;59.45;100751.09;5013773;28;45581;-83
2022/06/26 05:52:41;;;;;;;;;3.50;2.25;;;;;17.02;59.51;100746.47;5014061;28;45820;-84
2022/06/26 05:55:08;;;;;;;;;1.00;1.00;;;;;17.04;59.42;100755.94;5013635;28;45634;-80
2022/06/26 05:57:33;;;;;;;;;4.00;3.00;;;;;17.07;59.52;100744.19;4996311;28;47227;-85
2022/06/26 05:59:59;;;;;;;;;2.25;2.00;;;;;17.10;59.30;100749.22;5013938;28;45685;-79
2022/06/26 06:05:46;;;;;;;;;2.00;1.75;;;;;17.26;58.93;100754.69;5013565;28;45607;-86
2022/06/26 06:08:12;;;;;;;;;3.50;2.00;;;;;17.30;58.84;100760.53;5013611;28;45739;-80
2022/06/26 06:10:38;;;;;;;;;2.75;2.00;;;;;17.33;58.69;100763.69;5013847;28;45558;-83
2022/06/26 06:13:03;;;;;;;;;3.25;2.00;;;;;17.27;58.57;100748.44;5015993;28;45527;-84
2022/06/26 06:15:29;;;;;;;;;2.25;2.00;;;;;17.41;58.52;100768.25;5017608;28;45640;-85
2022/06/26 06:21:16;;;;;;;;;3.00;3.00;;;;;17.47;58.26;100763.22;5017312;28;45738;-85
2022/06/26 06:23:42;;;;;;;;;3.00;1.75;;;;;17.54;57.81;100763.44;5017778;28;45571;-84
2022/06/26 06:26:09;;;;;;;;;1.00;1.00;;;;;17.63;57.96;100761.75;5018007;28;45803;-85
2022/06/26 06:28:35;;;;;;;;;3.00;3.00;;;;;17.65;57.56;100770.38;5020010;28;46241;-83
2022/06/26 06:31:00;;;;;;;;;1.25;1.25;;;;;17.71;57.05;100778.53;5002750;28;45531;-82
2022/06/26 06:33:25;;;;;;;;;1.50;1.00;;;;;17.71;56.18;100775.88;5019100;28;45442;-78
2022/06/26 06:35:54;;;;;;;;;2.00;2.00;;;;;17.74;56.38;100780.06;5016485;28;46660;-77
2022/06/26 06:38:21;;;;;;;;;3.50;2.00;;;;;17.67;55.87;100766.59;5015616;28;46099;-78
2022/06/26 06:40:47;;;;;;;;;2.00;1.00;;;;;17.71;56.04;100770.59;5016354;28;45645;-78
2022/06/26 06:43:13;;;;;;;;;3.00;2.00;;;;;17.76;55.84;100784.22;5016326;28;45688;-77
2022/06/26 06:45:38;;;;;;;;;3.50;2.00;;;;;17.72;55.76;100785.50;5015992;28;46579;-76
2022/06/26 06:51:26;;;;;;;;;0.25;0.00;;;;;17.83;55.19;100795.91;5016247;28;45563;-80
2022/06/26 06:53:51;;;;;;;;;3.00;1.00;;;;;17.79;55.34;100786.59;5016367;28;45723;-77
2022/06/26 06:56:17;;;;;;;;;2.00;1.25;;;;;17.77;55.01;100780.59;5016340;28;45867;-79
2022/06/26 06:58:42;;;;;;;;;1.00;1.00;;;;;17.77;55.08;100783.25;4997600;28;48475;-80
2022/06/26 07:01:08;;;;;;;;;2.00;1.25;;;;;17.88;55.08;100803.38;5015767;28;45568;-79
2022/06/26 07:03:33;;;;;;;;;2.00;1.00;;;;;17.89;54.44;100805.06;5016050;28;45653;-78
2022/06/26 07:05:58;;;;;;;;;1.00;1.00;;;;;17.89;54.89;100802.41;5015821;28;45634;-77
2022/06/26 07:08:24;;;;;;;;;1.50;1.00;;;;;17.82;54.63;100791.56;5015561;28;45487;-79
2022/06/26 07:10:49;;;;;;;;;1.00;1.00;;;;;17.95;54.20;100809.75;5015847;28;45651;-79
2022/06/26 07:13:14;;;;;;;;;2.00;1.50;;;;;17.87;53.84;100783.16;5016250;28;45643;-79
2022/06/26 07:15:40;;;;;;;;;0.75;0.75;;;;;17.92;53.47;100797.63;5014188;28;47443;-80
2022/06/26 07:21:28;;;;;;;;;1.00;1.00;;;;;18.07;53.41;100827.13;5015872;28;45893;-80
2022/06/26 07:23:53;;;;;;;;;2.00;1.00;;;;;18.11;52.87;100831.13;5017708;28;45658;-84
2022/06/26 07:26:19;;;;;;;;;2.00;1.00;;;;;18.13;52.69;100833.63;5018686;28;45695;-81
2022/06/26 07:28:44;;;;;;;;;1.00;1.00;;;;;18.14;53.11;100833.47;5016001;28;46083;-80
2022/06/26 07:31:09;;;;;;;;;1.00;1.00;;;;;18.10;53.28;100828.63;5016548;28;45627;-81
2022/06/26 07:36:56;;;;;;;;;0.75;0.00;;;;;18.34;52.49;100845.59;5015399;28;46169;-81
2022/06/26 07:39:22;;;;;;;;;1.00;1.00;;;;;18.37;52.59;100836.47;4998242;28;47114;-80
2022/06/26 07:41:49;;;;;;;;;0.75;0.75;;;;;18.37;52.17;100823.22;5015892;28;45676;-81
2022/06/26 07:44:14;;;;;;;;;1.00;0.50;;;;;18.44;52.53;100826.94;4998257;28;45764;-80
2022/06/26 07:46:40;;;;;;;;;0.75;0.75;;;;;18.56;50.85;100835.50;5016080;28;45624;-81
2022/06/26 07:49:07;;;;;;;;;2.00;2.00;;;;;18.67;51.38;100840.56;5016214;28;45461;-80
2022/06/26 07:51:33;;;;;;;;;2.00;1.00;;;;;18.74;50.83;100846.91;5016470;28;45758;-78
2022/06/26 07:54:00;;;;;;;;;1.00;1.00;;;;;18.79;50.10;100847.25;5016343;28;45407;-81
2022/06/26 07:56:26;;;;;;;;;1.25;0.25;;;;;18.82;50.29;100841.66;5015867;28;46644;-79
2022/06/26 07:58:55;;;;;;;;;1.00;1.00;;;;;18.83;49.76;100845.97;5015899;28;45615;-80
2022/06/26 08:01:21;;;;;;;;;1.50;1.00;;;;;18.86;49.95;100853.63;5015958;28;45657;-80
2022/06/26 08:07:08;;;;;;;;;1.00;0.00;;;;;18.94;48.98;100834.25;5015708;28;45616;-80
2022/06/26 08:09:34;;;;;;;;;0.00;0.00;;;;;19.03;49.49;100841.28;5015467;28;45799;-81
2022/06/26 08:11:59;;;;;;;;;0.00;0.00;;;;;19.02;49.64;100824.50;5015602;28;45528;-80
2022/06/26 08:14:25;;;;;;;;;0.50;0.50;;;;;19.18;49.02;100832.56;5016945;28;45524;-81
2022/06/26 08:16:50;;;;;;;;;1.00;1.00;;;;;19.17;48.34;100820.25;5015715;28;46610;-81
2022/06/26 08:23:04;;;;;;;;;1.00;1.00;;;;;19.35;47.91;100825.50;5014670;28;45495;-82
2022/06/26 08:25:29;;;;;;;;;1.75;1.00;;;;;19.42;48.08;100834.50;5015487;28;45624;-80
2022/06/26 08:27:55;;;;;;;;;2.25;2.00;;;;;19.42;48.00;100829.19;5015426;28;46442;-81
2022/06/26 08:30:21;;;;;;;;;2.00;1.00;;;;;19.46;48.16;100835.03;5015580;28;46235;-82
2022/06/26 08:32:46;;;;;;;;;2.00;1.75;;;;;19.53;47.94;100836.88;5015807;28;45766;-80
2022/06/26 08:35:13;;;;;;;;;1.50;1.50;;;;;19.58;48.23;100841.72;5016578;28;45667;-83
2022/06/26 08:37:38;;;;;;;;;1.75;1.00;;;;;19.61;48.40;100831.59;5017449;28;46588;-87
2022/06/26 08:40:05;;;;;;;;;1.00;1.00;;;;;19.62;48.34;100830.59;5016080;28;46075;-82
2022/06/26 08:42:31;;;;;;;;;2.00;2.00;;;;;19.74;48.06;100832.97;5014653;28;45701;-82
2022/06/26 08:44:58;;;;;;;;;1.50;1.25;;;;;19.76;47.87;100829.13;5017272;28;45478;-82
2022/06/26 08:47:26;;;;;;;;;0.50;0.50;;;;;19.79;47.48;100834.13;5019170;28;45751;-83
2022/06/26 08:49:52;;;;;;;;;3.00;2.00;;;;;19.87;47.48;100833.28;5018613;28;45727;-82
2022/06/26 08:52:20;;;;;;;;;2.00;2.00;;;;;19.92;47.38;100826.50;5016332;28;45556;-82
2022/06/26 08:54:46;;;;;;;;;2.25;1.25;;;;;19.97;46.76;100834.00;5015561;28;45533;-81
2022/06/26 08:57:13;;;;;;;;;1.50;0.50;;;;;19.96;46.68;100825.19;5015791;28;46788;-82
2022/06/26 08:59:39;;;;;;;;;1.50;0.50;;;;;20.03;46.83;100817.38;5015937;28;45984;-83
2022/06/26 09:02:05;;;;;;;;;2.00;2.00;;;;;20.03;46.69;100804.91;5016385;28;46164;-82
2022/06/26 09:07:54;;;;;;;;;3.00;2.00;;;;;20.20;46.99;100807.56;5015214;28;45445;-82
2022/06/26 09:10:20;;;;;;;;;1.75;1.50;;;;;20.24;47.07;100808.91;5014852;28;45548;-81
2022/06/26 09:12:54;;;;;;;;;1.25;0.75;;;;;20.33;47.02;100807.94;5015486;28;45545;-82
2022/06/26 09:15:22;;;;;;;;;0.75;0.75;;;;;20.36;46.78;100800.44;5015670;28;45861;-83
2022/06/26 09:17:55;;;;;;;;;3.00;2.50;;;;;20.43;46.55;100789.97;5013834;28;49109;-81
2022/06/26 09:20:20;;;;;;;;;1.50;1.50;;;;;20.49;46.53;100794.63;4997687;28;46652;-83
2022/06/26 09:22:57;;;;;;;;;3.25;3.00;;;;;20.60;46.66;100799.59;5015563;28;45600;-84
2022/06/26 09:25:39;;;;;;;;;2.00;0.50;;;;;20.64;46.65;100790.25;5017742;28;45659;-89
2022/06/26 09:28:11;;;;;;;;;2.00;1.00;;;;;20.65;46.22;100791.94;5015351;28;47495;-85
2022/06/26 09:30:49;;;;;;;;;2.50;1.50;;;;;20.63;46.09;100785.09;5019162;28;45535;-89
2022/06/26 09:33:17;;;;;;;;;2.00;2.00;;;;;20.70;46.18;100789.59;5018734;28;45585;-87
2022/06/26 09:35:42;;;;;;;;;1.50;0.75;;;;;20.74;46.36;100796.22;5017693;28;45671;-82
2022/06/26 09:38:08;;;;;;;;;1.00;1.00;;;;;20.75;45.97;100789.06;5014384;28;45717;-82
2022/06/26 09:40:33;;;;;;;;;2.00;1.00;;;;;20.83;45.88;100794.38;5014640;28;45741;-82
2022/06/26 09:42:59;;;;;;;;;2.00;2.00;;;;;20.91;45.10;100792.53;5014432;28;45728;-81
2022/06/26 09:45:24;;;;;;;;;1.75;0.75;;;;;20.92;44.68;100786.19;5014187;28;45608;-83
2022/06/26 09:47:50;;;;;;;;;1.25;1.25;;;;;20.99;44.67;100801.50;5017236;28;45581;-82
2022/06/26 09:50:16;;;;;;;;;3.00;1.00;;;;;20.88;43.63;100778.72;5016009;28;48072;-83
2022/06/26 09:52:42;;;;;;;;;1.00;0.75;;;;;20.98;44.08;100789.16;5018620;28;45512;-81
2022/06/26 09:55:09;;;;;;;;;1.75;1.75;;;;;20.93;44.10;100782.53;5018351;28;45777;-83
2022/06/26 09:57:36;;;;;;;;;3.00;0.75;;;;;20.99;43.83;100785.50;5018349;28;45584;-82
2022/06/26 10:00:04;;;;;;;;;1.25;0.75;;;;;21.04;44.05;100809.81;5016905;28;47192;-83
2022/06/26 10:08:42;;;;;;;;;2.00;1.00;;;;;21.06;43.58;100797.13;5017588;28;45702;-82
2022/06/26 10:11:08;;;;;;;;;1.00;1.00;;;;;21.08;43.20;100795.13;5017183;28;46176;-81
2022/06/26 10:13:36;;;;;;;;;3.75;2.00;;;;;21.07;42.84;100793.47;5017495;28;45733;-82
2022/06/26 10:16:36;;;;;;;;;1.00;1.00;;;;;21.12;43.17;100793.78;5018744;28;45740;-81
2022/06/26 10:19:20;;;;;;;;;1.00;1.00;;;;;21.09;43.58;100789.63;5018047;28;46475;-80
2022/06/26 10:21:46;;;;;;;;;1.00;1.00;;;;;21.13;43.53;100779.44;4999540;28;47394;-82
2022/06/26 10:24:12;;;;;;;;;1.00;0.00;;;;;21.18;43.30;100793.13;5018577;28;45747;-79
2022/06/26 10:26:37;;;;;;;;;2.00;1.00;;;;;21.12;43.38;100775.13;5018237;28;45497;-82
2022/06/26 10:29:08;;;;;;;;;1.50;1.25;;;;;21.20;43.07;100781.28;5018093;28;45652;-84
2022/06/26 10:31:47;;;;;;;;;1.50;1.00;;;;;21.23;43.08;100788.94;5018294;28;46390;-85
2022/06/26 10:34:19;;;;;;;;;1.00;1.00;;;;;21.23;43.26;100788.09;5017705;28;45627;-85
2022/06/26 10:37:10;;;;;;;;;2.00;1.25;;;;;21.27;43.25;100786.75;5015668;28;45717;-86
2022/06/26 10:39:58;;;;;;;;;2.00;1.00;;;;;21.27;43.49;100792.06;5015904;28;47642;-86
2022/06/26 10:45:14;;;;;;;;;1.00;1.00;;;;;21.39;42.30;100803.19;5016886;28;45529;-84
2022/06/26 10:47:45;;;;;;;;;1.25;1.00;;;;;21.37;42.07;100800.72;4998687;28;45544;-82
2022/06/26 10:50:36;;;;;;;;;1.00;1.00;;;;;21.41;42.25;100804.69;5017145;28;45932;-84
2022/06/26 10:53:18;;;;;;;;;2.00;2.00;;;;;21.43;42.05;100813.31;5016609;28;46155;-81
2022/06/26 10:55:56;;;;;;;;;2.00;1.00;;;;;21.44;42.42;100804.31;5015891;28;45776;-84
2022/06/26 10:58:28;;;;;;;;;2.00;2.00;;;;;21.47;42.45;100797.81;5017194;28;45571;-84
2022/06/26 11:00:59;;;;;;;;;2.00;2.00;;;;;21.51;42.42;100789.28;5015578;28;48916;-83
2022/06/26 11:03:26;;;;;;;;;2.25;1.00;;;;;21.51;42.58;100783.97;5016970;28;45588;-84
2022/06/26 11:05:59;;;;;;;;;1.00;1.00;;;;;21.59;42.20;100783.09;4998463;28;45652;-81
2022/06/26 11:08:31;;;;;;;;;2.75;2.25;;;;;21.64;42.00;100789.56;5018280;28;45771;-83
2022/06/26 11:11:08;;;;;;;;;2.50;2.00;;;;;21.63;42.17;100779.06;5019165;28;45738;-88
2022/06/26 11:13:35;;;;;;;;;2.00;2.00;;;;;21.76;41.97;100797.97;5017051;28;46380;-80
2022/06/26 11:16:01;;;;;;;;;4.00;2.75;;;;;21.78;41.47;100778.13;5019029;28;45603;-80
2022/06/26 11:18:33;;;;;;;;;2.00;2.00;;;;;21.80;42.03;100780.63;5016558;28;45521;-83
2022/06/26 11:21:01;;;;;;;;;2.00;2.00;;;;;21.84;41.78;100778.41;4997910;28;47436;-82
2022/06/26 11:23:33;;;;;;;;;1.75;1.75;;;;;21.90;42.26;100775.88;5016058;28;46212;-87
2022/06/26 11:26:08;;;;;;;;;3.75;2.00;;;;;21.94;41.82;100771.00;5017420;28;45722;-88
2022/06/26 11:28:37;;;;;;;;;1.00;1.00;;;;;21.94;41.03;100753.19;5000015;28;45922;-82
2022/06/26 11:31:04;;;;;;;;;2.00;2.00;;;;;21.95;41.47;100754.84;5014787;28;48414;-82
2022/06/26 11:33:33;;;;;;;;;2.50;1.50;;;;;22.05;40.32;100765.28;5016683;28;45640;-85
2022/06/26 11:36:04;;;;;;;;;1.00;1.00;;;;;22.15;41.19;100779.19;5016049;28;45688;-84
2022/06/26 11:38:30;;;;;;;;;1.25;1.25;;;;;22.14;40.47;100767.69;5015638;28;45711;-86
2022/06/26 11:41:05;;;;;;;;;1.00;1.00;;;;;22.17;40.66;100775.34;5016647;28;45713;-81
2022/06/26 11:43:31;;;;;;;;;1.25;1.25;;;;;22.15;40.32;100774.69;5015889;28;46649;-82
2022/06/26 11:45:57;;;;;;;;;2.00;1.00;;;;;22.23;40.46;100784.47;5016532;28;45594;-81
2022/06/26 11:48:23;;;;;;;;;1.00;1.00;;;;;22.21;40.02;100767.81;5017830;28;45515;-84
2022/06/26 11:50:54;;;;;;;;;2.00;1.00;;;;;22.28;40.17;100776.75;5017591;28;45567;-81
2022/06/26 11:53:25;;;;;;;;;6.00;3.00;;;;;22.25;39.85;100774.44;5016315;28;46407;-83
2022/06/26 11:55:53;;;;;;;;;1.00;1.00;;;;;22.34;40.47;100781.38;5016053;28;45659;-84
2022/06/26 11:58:23;;;;;;;;;3.00;2.25;;;;;22.32;39.57;100774.53;5017619;28;45640;-82
2022/06/26 12:00:49;;;;;;;;;4.00;2.50;;;;;22.33;39.83;100753.00;5018488;28;45800;-87
2022/06/26 12:03:14;;;;;;;;;4.00;2.00;;;;;22.40;40.04;100775.28;5017848;28;46506;-84
2022/06/26 12:05:42;;;;;;;;;4.00;3.00;;;;;22.49;39.71;100765.38;5018620;28;45662;-85
2022/06/26 12:08:18;;;;;;;;;2.00;1.00;;;;;22.55;39.82;100765.47;5021277;28;45680;-81
2022/06/26 12:10:51;;;;;;;;;1.00;1.00;;;;;22.55;39.17;100757.47;5018853;28;45628;-82
2022/06/26 12:13:25;;;;;;;;;1.25;1.25;;;;;22.68;39.18;100761.31;4999427;28;47266;-83
2022/06/26 12:15:51;;;;;;;;;2.00;1.00;;;;;22.70;39.58;100754.78;5016544;28;45656;-82
2022/06/26 12:18:17;;;;;;;;;2.00;2.00;;;;;22.70;39.15;100749.44;5016018;28;45536;-80
2022/06/26 12:20:47;;;;;;;;;1.75;1.75;;;;;22.79;39.05;100748.38;4997179;28;45979;-81
2022/06/26 12:23:13;;;;;;;;;3.00;2.00;;;;;22.81;39.50;100742.84;5015982;28;46814;-85
2022/06/26 12:25:42;;;;;;;;;3.75;3.75;;;;;22.95;39.27;100752.69;5016388;28;45781;-84
2022/06/26 12:28:08;;;;;;;;;3.00;3.00;;;;;23.01;38.83;100750.09;4998218;28;45974;-85
2022/06/26 12:30:36;;;;;;;;;23.25;22.25;;;;;23.00;38.88;100739.59;5015438;28;46463;-85
2022/06/26 12:33:04;;;;;;;;;8.00;7.25;;;;;23.08;39.10;100744.84;5015734;28;46081;-83
2022/06/26 12:35:31;;;;;;;;;6.00;5.50;;;;;23.18;38.55;100749.91;5013672;28;45640;-81
2022/06/26 12:37:58;;;;;;;;;3.50;2.50;;;;;23.22;38.79;100743.16;5015428;28;45532;-85
2022/06/26 12:40:24;;;;;;;;;2.00;2.00;;;;;23.34;38.97;100747.84;5015484;28;45710;-84
2022/06/26 12:42:50;;;;;;;;;2.50;2.50;;;;;23.36;38.72;100737.78;5015228;28;45747;-83
2022/06/26 12:45:16;;;;;;;;;1.75;1.75;;;;;23.37;38.68;100730.59;5015165;28;45656;-83
2022/06/26 12:47:41;;;;;;;;;4.50;2.25;;;;;23.47;38.52;100743.69;5013860;28;45572;-89